Time;durP1;ratioP1;P1;durP2;ratioP2;P2;SDS_P1;SDS_P2;PMS_P1;PMS_P2;Temp;Humidity;BMP_temperature;BMP_pressure;BME280_temperature;BME280_humidity;BME280_pressure;Samples;Min_cycle;Max_cycle;Signal;HPM_P1;HPM_P2
2023/05/25 00:00:53;;;;;;;;;;;;;;;;;;5082590;28;19969;-71
2023/05/25 00:03:19;;;;;;;;;;;;;;;;;;5110593;28;19920;-71
2023/05/25 00:05:44;;;;;;;;;;;;;;;;;;5111973;28;19923;-72
2023/05/25 00:08:09;;;;;;;;;;;;;;;;;;5112103;28;19964;-71
2023/05/25 00:10:34;;;;;;;;;;;;;;;;;;5112193;28;19916;-72
2023/05/25 00:13:00;;;;;;;;;;;;;;;;;;5093858;28;20270;-71
2023/05/25 00:15:25;;;;;;;;;;;;;;;;;;5108084;28;19922;-71
2023/05/25 00:17:53;;;;;;;;;;;;;;;;;;5099807;28;20025;-71
2023/05/25 00:20:18;;;;;;;;;;;;;;;;;;5100087;28;19920;-69
2023/05/25 00:22:44;;;;;;;;;;;;;;;;;;5100106;28;19942;-67
2023/05/25 00:25:10;;;;;;;;;;;;;;;;;;5091374;28;19978;-67
2023/05/25 00:27:35;;;;;;;;;;;;;;;;;;5091208;28;20354;-66
2023/05/25 00:30:01;;;;;;;;;;;;;;;;;;5073287;28;19916;-66
2023/05/25 00:32:27;;;;;;;;;;;;;;;;;;5091327;28;20335;-65
2023/05/25 00:34:52;;;;;;;;;;;;;;;;;;5091569;28;20015;-66
2023/05/25 00:37:17;;;;;;;;;;;;;;;;;;5100721;28;20011;-66
2023/05/25 00:39:43;;;;;;;;;;;;;;;;;;5081958;28;20154;-65
2023/05/25 00:42:08;;;;;;;;;;;;;;;;;;5107514;28;19920;-67
2023/05/25 00:44:33;;;;;;;;;;;;;;;;;;5094013;28;19919;-67
2023/05/25 00:46:58;;;;;;;;;;;;;;;;;;5113759;28;19923;-67
2023/05/25 00:49:24;;;;;;;;;;;;;;;;;;5085677;28;20015;-66
2023/05/25 00:51:49;;;;;;;;;;;;;;;;;;5108810;28;19922;-66
2023/05/25 00:54:15;;;;;;;;;;;;;;;;;;5102402;28;20427;-66
2023/05/25 00:56:41;;;;;;;;;;;;;;;;;;5072675;28;19959;-66
2023/05/25 00:59:07;;;;;;;;;;;;;;;;;;5103644;28;19936;-67
2023/05/25 01:01:38;;;;;;;;;;;;;;;;;;5094628;28;19926;-67
2023/05/25 01:04:03;;;;;;;;;;;;;;;;;;5089181;28;19930;-66
2023/05/25 01:06:29;;;;;;;;;;;;;;;;;;5096959;28;19924;-67
2023/05/25 01:08:59;;;;;;;;;;;;;;;;;;5115129;28;19965;-66
2023/05/25 01:11:25;;;;;;;;;;;;;;;;;;5114934;28;19915;-66
2023/05/25 01:13:50;;;;;;;;;;;;;;;;;;5096382;28;20341;-67
2023/05/25 01:16:15;;;;;;;;;;;;;;;;;;5084701;28;19916;-66
2023/05/25 01:18:41;;;;;;;;;;;;;;;;;;5083063;28;20155;-67
2023/05/25 01:21:11;;;;;;;;;;;;;;;;;;5083130;28;19977;-67
2023/05/25 01:23:37;;;;;;;;;;;;;;;;;;5085051;28;19924;-67
2023/05/25 01:26:02;;;;;;;;;;;;;;;;;;5103006;28;19928;-66
2023/05/25 01:28:29;;;;;;;;;;;;;;;;;;5076194;28;20023;-66
2023/05/25 01:30:55;;;;;;;;;;;;;;;;;;5102079;28;20041;-67
2023/05/25 01:33:20;;;;;;;;;;;;;;;;;;5090578;28;19967;-66
2023/05/25 01:35:46;;;;;;;;;;;;;;;;;;5102856;28;19916;-67
2023/05/25 01:38:11;;;;;;;;;;;;;;;;;;5075306;28;19926;-66
2023/05/25 01:40:38;;;;;;;;;;;;;;;;;;5094146;28;19923;-67
2023/05/25 01:43:03;;;;;;;;;;;;;;;;;;5094142;28;19920;-67
2023/05/25 01:45:28;;;;;;;;;;;;;;;;;;5075921;28;19924;-67
2023/05/25 01:47:55;;;;;;;;;;;;;;;;;;5094471;28;19924;-66
2023/05/25 01:50:20;;;;;;;;;;;;;;;;;;5075951;28;19916;-66
2023/05/25 01:52:46;;;;;;;;;;;;;;;;;;5075619;28;19920;-65
2023/05/25 01:55:12;;;;;;;;;;;;;;;;;;5084639;28;19920;-67
2023/05/25 01:57:37;;;;;;;;;;;;;;;;;;5060084;28;19920;-66
2023/05/25 02:00:03;;;;;;;;;;;;;;;;;;5087839;28;19927;-66
2023/05/25 02:02:38;;;;;;;;;;;;;;;;;;5094360;28;20005;-65
2023/05/25 02:05:03;;;;;;;;;;;;;;;;;;5112094;28;19947;-66
2023/05/25 02:07:29;;;;;;;;;;;;;;;;;;5085662;28;19994;-66
2023/05/25 02:09:54;;;;;;;;;;;;;;;;;;5084149;28;19920;-67
2023/05/25 02:12:19;;;;;;;;;;;;;;;;;;5084782;28;19922;-67
2023/05/25 02:14:47;;;;;;;;;;;;;;;;;;5102191;28;19916;-67
2023/05/25 02:17:12;;;;;;;;;;;;;;;;;;5083439;28;19962;-68
2023/05/25 02:19:38;;;;;;;;;;;;;;;;;;5075661;28;19920;-67
2023/05/25 02:22:03;;;;;;;;;;;;;;;;;;5090823;28;20018;-66
2023/05/25 02:24:28;;;;;;;;;;;;;;;;;;5114204;28;20288;-68
2023/05/25 02:26:54;;;;;;;;;;;;;;;;;;5095273;28;20308;-66
2023/05/25 02:29:19;;;;;;;;;;;;;;;;;;5114045;28;19927;-67
2023/05/25 02:31:45;;;;;;;;;;;;;;;;;;5113045;28;20369;-67
2023/05/25 02:34:10;;;;;;;;;;;;;;;;;;5113098;28;19919;-67
2023/05/25 02:36:35;;;;;;;;;;;;;;;;;;5113089;28;19957;-71
2023/05/25 02:39:21;;;;;;;;;;;;;;;;;;5097891;28;19926;-72
2023/05/25 02:41:47;;;;;;;;;;;;;;;;;;5083544;28;19916;-72
2023/05/25 02:44:12;;;;;;;;;;;;;;;;;;5103645;28;19919;-71
2023/05/25 02:46:37;;;;;;;;;;;;;;;;;;5098084;28;19924;-69
2023/05/25 02:49:03;;;;;;;;;;;;;;;;;;5093293;28;20316;-72
2023/05/25 02:51:28;;;;;;;;;;;;;;;;;;5074297;28;20377;-72
2023/05/25 02:53:56;;;;;;;;;;;;;;;;;;5075387;28;19927;-72
2023/05/25 02:56:21;;;;;;;;;;;;;;;;;;5082258;28;19916;-71
2023/05/25 02:58:47;;;;;;;;;;;;;;;;;;5079443;28;19993;-71
2023/05/25 03:01:17;;;;;;;;;;;;;;;;;;5083172;28;20288;-68
2023/05/25 03:03:46;;;;;;;;;;;;;;;;;;5044842;28;19920;-70
2023/05/25 03:06:12;;;;;;;;;;;;;;;;;;5072999;28;19950;-70
2023/05/25 03:08:38;;;;;;;;;;;;;;;;;;5072956;28;19920;-70
2023/05/25 03:11:03;;;;;;;;;;;;;;;;;;5089407;28;19923;-71
2023/05/25 03:13:29;;;;;;;;;;;;;;;;;;5083096;28;19920;-67
2023/05/25 03:15:54;;;;;;;;;;;;;;;;;;5082700;28;19916;-68
2023/05/25 03:18:21;;;;;;;;;;;;;;;;;;5074250;28;19920;-71
2023/05/25 03:20:46;;;;;;;;;;;;;;;;;;5082474;28;19969;-70
2023/05/25 03:23:12;;;;;;;;;;;;;;;;;;5084221;28;19969;-71
2023/05/25 03:25:38;;;;;;;;;;;;;;;;;;5082077;28;20026;-70
2023/05/25 03:28:03;;;;;;;;;;;;;;;;;;5083311;28;19959;-68
2023/05/25 03:30:29;;;;;;;;;;;;;;;;;;5082421;28;19924;-69
2023/05/25 03:32:54;;;;;;;;;;;;;;;;;;5081985;28;19927;-67
2023/05/25 03:35:20;;;;;;;;;;;;;;;;;;5082377;28;20388;-66
2023/05/25 03:37:46;;;;;;;;;;;;;;;;;;5099750;28;19927;-66
2023/05/25 03:40:11;;;;;;;;;;;;;;;;;;5108455;28;19916;-66
2023/05/25 03:42:36;;;;;;;;;;;;;;;;;;5085055;28;19924;-67
2023/05/25 03:45:02;;;;;;;;;;;;;;;;;;5084050;28;19967;-66
2023/05/25 03:47:29;;;;;;;;;;;;;;;;;;5085259;28;19924;-67
2023/05/25 03:49:54;;;;;;;;;;;;;;;;;;5102538;28;20342;-66
2023/05/25 03:52:19;;;;;;;;;;;;;;;;;;5079218;28;19915;-67
2023/05/25 03:54:45;;;;;;;;;;;;;;;;;;5073773;28;20305;-67
2023/05/25 03:57:10;;;;;;;;;;;;;;;;;;5080093;28;20372;-70
2023/05/25 03:59:35;;;;;;;;;;;;;;;;;;5083256;28;19927;-67
2023/05/25 04:02:01;;;;;;;;;;;;;;;;;;5084913;28;19960;-66
2023/05/25 04:04:28;;;;;;;;;;;;;;;;;;5112176;28;19927;-67
2023/05/25 04:06:54;;;;;;;;;;;;;;;;;;5084121;28;19928;-67
2023/05/25 04:09:19;;;;;;;;;;;;;;;;;;5084037;28;20425;-66
2023/05/25 04:11:44;;;;;;;;;;;;;;;;;;5082937;28;20432;-66
2023/05/25 04:14:10;;;;;;;;;;;;;;;;;;5072312;28;19920;-67
2023/05/25 04:16:40;;;;;;;;;;;;;;;;;;5088483;28;19957;-67
2023/05/25 04:19:05;;;;;;;;;;;;;;;;;;5081841;28;20377;-66
2023/05/25 04:21:31;;;;;;;;;;;;;;;;;;5103876;28;19923;-66
2023/05/25 04:23:56;;;;;;;;;;;;;;;;;;5079247;28;20000;-67
2023/05/25 04:26:22;;;;;;;;;;;;;;;;;;5087204;28;19928;-67
2023/05/25 04:28:50;;;;;;;;;;;;;;;;;;5086178;28;19926;-67
2023/05/25 04:31:25;;;;;;;;;;;;;;;;;;5095632;28;19924;-66
2023/05/25 04:34:13;;;;;;;;;;;;;;;;;;5103521;28;19927;-65
2023/05/25 04:36:42;;;;;;;;;;;;;;;;;;5090579;28;19923;-65
2023/05/25 04:39:08;;;;;;;;;;;;;;;;;;5078030;28;19924;-67
2023/05/25 04:41:38;;;;;;;;;;;;;;;;;;5085313;28;19916;-67
2023/05/25 04:44:07;;;;;;;;;;;;;;;;;;5083684;28;20145;-67
2023/05/25 04:46:36;;;;;;;;;;;;;;;;;;5096818;28;20455;-67
2023/05/25 04:49:01;;;;;;;;;;;;;;;;;;5097104;28;19954;-66
2023/05/25 04:51:27;;;;;;;;;;;;;;;;;;5097030;28;19911;-67
2023/05/25 04:53:52;;;;;;;;;;;;;;;;;;5097124;28;19962;-70
2023/05/25 04:56:17;;;;;;;;;;;;;;;;;;5096936;28;19955;-71
2023/05/25 04:58:43;;;;;;;;;;;;;;;;;;5093569;28;19927;-67
2023/05/25 05:01:08;;;;;;;;;;;;;;;;;;5088990;28;20457;-69
2023/05/25 05:03:33;;;;;;;;;;;;;;;;;;5114487;28;20291;-68
2023/05/25 05:06:00;;;;;;;;;;;;;;;;;;5114607;28;19924;-69
2023/05/25 05:08:28;;;;;;;;;;;;;;;;;;5075155;28;19947;-70
2023/05/25 05:10:53;;;;;;;;;;;;;;;;;;5076046;28;19962;-69
2023/05/25 05:13:19;;;;;;;;;;;;;;;;;;5059279;28;19963;-67
2023/05/25 05:15:45;;;;;;;;;;;;;;;;;;5089710;28;19915;-63
2023/05/25 05:18:11;;;;;;;;;;;;;;;;;;5094283;28;20296;-66
2023/05/25 05:20:37;;;;;;;;;;;;;;;;;;5093245;28;20012;-69
2023/05/25 05:23:02;;;;;;;;;;;;;;;;;;5075017;28;19964;-66
2023/05/25 05:25:27;;;;;;;;;;;;;;;;;;5076190;28;19931;-66
2023/05/25 05:27:53;;;;;;;;;;;;;;;;;;5083309;28;19954;-65
2023/05/25 05:30:24;;;;;;;;;;;;;;;;;;5087995;28;19961;-68
2023/05/25 05:32:49;;;;;;;;;;;;;;;;;;5079955;28;19964;-68
2023/05/25 05:35:16;;;;;;;;;;;;;;;;;;5083554;28;19915;-69
2023/05/25 05:37:44;;;;;;;;;;;;;;;;;;5081670;28;20013;-67
2023/05/25 05:40:10;;;;;;;;;;;;;;;;;;5079038;28;19916;-70
2023/05/25 05:42:37;;;;;;;;;;;;;;;;;;5087041;28;19967;-70
2023/05/25 05:45:02;;;;;;;;;;;;;;;;;;5096025;28;20004;-70
2023/05/25 05:47:29;;;;;;;;;;;;;;;;;;5085255;28;20029;-70
2023/05/25 05:49:54;;;;;;;;;;;;;;;;;;5093738;28;19944;-67
2023/05/25 05:52:19;;;;;;;;;;;;;;;;;;5058914;28;19935;-71
2023/05/25 05:54:45;;;;;;;;;;;;;;;;;;5093305;28;20010;-71
2023/05/25 05:57:12;;;;;;;;;;;;;;;;;;5091645;28;19916;-72
2023/05/25 05:59:37;;;;;;;;;;;;;;;;;;5076649;28;19964;-71
2023/05/25 06:02:03;;;;;;;;;;;;;;;;;;5118446;27;19926;-71
2023/05/25 06:04:29;;;;;;;;;;;;;;;;;;5088165;28;19920;-72
2023/05/25 06:06:54;;;;;;;;;;;;;;;;;;5073628;28;19931;-71
2023/05/25 06:09:20;;;;;;;;;;;;;;;;;;5072969;28;20028;-75
2023/05/25 06:11:45;;;;;;;;;;;;;;;;;;5090157;28;19916;-72
2023/05/25 06:14:11;;;;;;;;;;;;;;;;;;5056160;28;19970;-72
2023/05/25 06:16:36;;;;;;;;;;;;;;;;;;5074411;28;19920;-72
2023/05/25 06:19:01;;;;;;;;;;;;;;;;;;5073004;28;19920;-71
2023/05/25 06:21:27;;;;;;;;;;;;;;;;;;5091267;28;19916;-71
2023/05/25 06:23:52;;;;;;;;;;;;;;;;;;5052988;28;19927;-71
2023/05/25 06:26:17;;;;;;;;;;;;;;;;;;5063323;28;19924;-71
2023/05/25 06:28:43;;;;;;;;;;;;;;;;;;5091154;28;20285;-70
2023/05/25 06:31:08;;;;;;;;;;;;;;;;;;5078804;28;19986;-72
2023/05/25 06:33:34;;;;;;;;;;;;;;;;;;5071514;28;19932;-73
2023/05/25 06:35:59;;;;;;;;;;;;;;;;;;5055956;28;19916;-68
2023/05/25 06:38:25;;;;;;;;;;;;;;;;;;5091977;28;20453;-61
2023/05/25 06:40:51;;;;;;;;;;;;;;;;;;5072849;28;19916;-69
2023/05/25 06:43:16;;;;;;;;;;;;;;;;;;5066972;28;19973;-68
2023/05/25 06:45:51;;;;;;;;;;;;;;;;;;5079209;28;19955;-65
2023/05/25 06:48:18;;;;;;;;;;;;;;;;;;5080756;28;20419;-66
2023/05/25 06:50:44;;;;;;;;;;;;;;;;;;5093708;28;19912;-67
2023/05/25 06:53:10;;;;;;;;;;;;;;;;;;5094194;28;19920;-67
2023/05/25 06:55:35;;;;;;;;;;;;;;;;;;5106522;28;19915;-67
2023/05/25 06:58:01;;;;;;;;;;;;;;;;;;5079655;28;19927;-66
2023/05/25 07:00:26;;;;;;;;;;;;;;;;;;5091099;28;19923;-67
2023/05/25 07:02:51;;;;;;;;;;;;;;;;;;5111886;28;19920;-68
2023/05/25 07:05:17;;;;;;;;;;;;;;;;;;5112099;28;19966;-66
2023/05/25 07:07:42;;;;;;;;;;;;;;;;;;5113779;27;19926;-65
2023/05/25 07:10:07;;;;;;;;;;;;;;;;;;5111001;28;19915;-66
2023/05/25 07:12:33;;;;;;;;;;;;;;;;;;5110326;28;19926;-66
2023/05/25 07:14:58;;;;;;;;;;;;;;;;;;5095243;28;20006;-68
2023/05/25 07:17:23;;;;;;;;;;;;;;;;;;5110364;28;19927;-66
2023/05/25 07:19:49;;;;;;;;;;;;;;;;;;5093232;28;19948;-66
2023/05/25 07:22:17;;;;;;;;;;;;;;;;;;5112063;28;19939;-67
2023/05/25 07:24:43;;;;;;;;;;;;;;;;;;5110248;28;19958;-66
2023/05/25 07:27:08;;;;;;;;;;;;;;;;;;5110525;28;19947;-68
2023/05/25 07:29:33;;;;;;;;;;;;;;;;;;5098550;28;20377;-67
2023/05/25 07:31:59;;;;;;;;;;;;;;;;;;5090991;28;19924;-66
2023/05/25 07:34:24;;;;;;;;;;;;;;;;;;5093747;28;19950;-68
2023/05/25 07:36:50;;;;;;;;;;;;;;;;;;5091147;28;19920;-67
2023/05/25 07:39:15;;;;;;;;;;;;;;;;;;5100419;28;19920;-67
2023/05/25 07:41:40;;;;;;;;;;;;;;;;;;5112051;28;19955;-67
2023/05/25 07:44:06;;;;;;;;;;;;;;;;;;5102194;28;20003;-68
2023/05/25 07:46:31;;;;;;;;;;;;;;;;;;5092598;28;20206;-68
2023/05/25 07:48:58;;;;;;;;;;;;;;;;;;5104768;28;19920;-69
2023/05/25 07:51:25;;;;;;;;;;;;;;;;;;5101314;28;19924;-68
2023/05/25 07:53:51;;;;;;;;;;;;;;;;;;5090938;28;19920;-68
2023/05/25 07:56:16;;;;;;;;;;;;;;;;;;5091110;28;19917;-69
2023/05/25 07:58:41;;;;;;;;;;;;;;;;;;5091410;28;19981;-68
2023/05/25 08:01:07;;;;;;;;;;;;;;;;;;5110771;28;20033;-68
2023/05/25 08:03:32;;;;;;;;;;;;;;;;;;5093299;28;19927;-68
2023/05/25 08:05:57;;;;;;;;;;;;;;;;;;5111221;28;19923;-68
2023/05/25 08:08:23;;;;;;;;;;;;;;;;;;5106935;28;20524;-70
2023/05/25 08:10:48;;;;;;;;;;;;;;;;;;5092306;28;20392;-68
2023/05/25 08:13:14;;;;;;;;;;;;;;;;;;5095795;28;19926;-68
2023/05/25 08:15:39;;;;;;;;;;;;;;;;;;5110979;28;19915;-67
2023/05/25 08:18:05;;;;;;;;;;;;;;;;;;5092939;28;19951;-69
2023/05/25 08:20:31;;;;;;;;;;;;;;;;;;5102389;28;20380;-69
2023/05/25 08:22:57;;;;;;;;;;;;;;;;;;5106342;28;19927;-69
2023/05/25 08:25:23;;;;;;;;;;;;;;;;;;5109961;28;19923;-69
2023/05/25 08:27:48;;;;;;;;;;;;;;;;;;5091249;28;19920;-69
2023/05/25 08:30:13;;;;;;;;;;;;;;;;;;5091734;28;19920;-68
2023/05/25 08:32:39;;;;;;;;;;;;;;;;;;5091252;28;20312;-68
2023/05/25 08:35:04;;;;;;;;;;;;;;;;;;5091130;28;19916;-68
2023/05/25 08:37:30;;;;;;;;;;;;;;;;;;5073029;28;19916;-68
2023/05/25 08:39:55;;;;;;;;;;;;;;;;;;5093026;28;19923;-68
2023/05/25 08:42:20;;;;;;;;;;;;;;;;;;5110731;28;19984;-64
2023/05/25 08:44:46;;;;;;;;;;;;;;;;;;5107597;28;20001;-69
2023/05/25 08:47:12;;;;;;;;;;;;;;;;;;5099581;28;19924;-69
2023/05/25 08:49:37;;;;;;;;;;;;;;;;;;5086944;28;19923;-67
2023/05/25 08:52:02;;;;;;;;;;;;;;;;;;5110496;28;20299;-69
2023/05/25 08:54:28;;;;;;;;;;;;;;;;;;5109152;28;19920;-69
2023/05/25 08:56:53;;;;;;;;;;;;;;;;;;5110320;28;20391;-69
2023/05/25 08:59:18;;;;;;;;;;;;;;;;;;5111855;28;19924;-69
2023/05/25 09:01:44;;;;;;;;;;;;;;;;;;5092234;28;19916;-69
2023/05/25 09:04:12;;;;;;;;;;;;;;;;;;5075985;28;19943;-69
2023/05/25 09:06:38;;;;;;;;;;;;;;;;;;5112928;28;19981;-69
2023/05/25 09:09:03;;;;;;;;;;;;;;;;;;5114966;28;20416;-69
2023/05/25 09:11:28;;;;;;;;;;;;;;;;;;5096447;28;19915;-67
2023/05/25 09:13:54;;;;;;;;;;;;;;;;;;5096583;28;20022;-69
2023/05/25 09:16:19;;;;;;;;;;;;;;;;;;5114763;28;20312;-69
2023/05/25 09:18:45;;;;;;;;;;;;;;;;;;5096698;28;20368;-69
2023/05/25 09:21:10;;;;;;;;;;;;;;;;;;5114285;28;19919;-68
2023/05/25 09:23:35;;;;;;;;;;;;;;;;;;5114662;28;19916;-68
2023/05/25 09:26:01;;;;;;;;;;;;;;;;;;5113843;28;19924;-69
2023/05/25 09:28:26;;;;;;;;;;;;;;;;;;5114883;28;19989;-68
2023/05/25 09:30:52;;;;;;;;;;;;;;;;;;5095810;28;19946;-68
2023/05/25 09:33:17;;;;;;;;;;;;;;;;;;5114354;28;19945;-69
2023/05/25 09:35:42;;;;;;;;;;;;;;;;;;5114409;28;20405;-68
2023/05/25 09:38:08;;;;;;;;;;;;;;;;;;5113732;28;19915;-70
2023/05/25 09:40:34;;;;;;;;;;;;;;;;;;5114456;28;19926;-69
2023/05/25 09:42:59;;;;;;;;;;;;;;;;;;5114202;28;19919;-68
2023/05/25 09:45:25;;;;;;;;;;;;;;;;;;5113981;28;20006;-68
2023/05/25 09:47:50;;;;;;;;;;;;;;;;;;5114023;28;19919;-68
2023/05/25 09:50:16;;;;;;;;;;;;;;;;;;5113668;28;19912;-69
2023/05/25 09:52:42;;;;;;;;;;;;;;;;;;5106324;28;20406;-71
2023/05/25 09:55:08;;;;;;;;;;;;;;;;;;5101111;28;19939;-69
2023/05/25 09:57:33;;;;;;;;;;;;;;;;;;5068491;28;20297;-69
2023/05/25 09:59:58;;;;;;;;;;;;;;;;;;5086219;28;19916;-68
2023/05/25 10:02:24;;;;;;;;;;;;;;;;;;5085509;27;19920;-67
2023/05/25 10:04:50;;;;;;;;;;;;;;;;;;5120514;27;19919;-68
2023/05/25 10:07:15;;;;;;;;;;;;;;;;;;5117005;27;19933;-69
2023/05/25 10:09:41;;;;;;;;;;;;;;;;;;5114396;28;19926;-67
2023/05/25 10:12:06;;;;;;;;;;;;;;;;;;5113687;28;19916;-65
2023/05/25 10:14:32;;;;;;;;;;;;;;;;;;5113755;28;19965;-66
2023/05/25 10:16:57;;;;;;;;;;;;;;;;;;5095054;28;20132;-66
2023/05/25 10:19:22;;;;;;;;;;;;;;;;;;5112701;28;19920;-66
2023/05/25 10:21:48;;;;;;;;;;;;;;;;;;5092129;28;19939;-66
2023/05/25 10:24:13;;;;;;;;;;;;;;;;;;5074216;28;20327;-66
2023/05/25 10:26:38;;;;;;;;;;;;;;;;;;5074342;28;20381;-66
2023/05/25 10:29:03;;;;;;;;;;;;;;;;;;5093129;28;19974;-67
2023/05/25 10:31:29;;;;;;;;;;;;;;;;;;5092795;28;19924;-66
2023/05/25 10:33:55;;;;;;;;;;;;;;;;;;5093061;28;20000;-67
2023/05/25 10:36:20;;;;;;;;;;;;;;;;;;5092624;28;19916;-67
2023/05/25 10:38:46;;;;;;;;;;;;;;;;;;5095273;28;20025;-67
2023/05/25 10:41:11;;;;;;;;;;;;;;;;;;5105105;28;19916;-66
2023/05/25 10:43:36;;;;;;;;;;;;;;;;;;5100555;28;19924;-66
2023/05/25 10:46:02;;;;;;;;;;;;;;;;;;5102762;28;20326;-66
2023/05/25 10:48:27;;;;;;;;;;;;;;;;;;5102682;28;19920;-66
2023/05/25 10:50:52;;;;;;;;;;;;;;;;;;5103832;28;20381;-66
2023/05/25 10:53:19;;;;;;;;;;;;;;;;;;5092869;28;19928;-65
2023/05/25 10:55:44;;;;;;;;;;;;;;;;;;5104807;28;19996;-65
2023/05/25 10:58:10;;;;;;;;;;;;;;;;;;5112789;28;19939;-65
2023/05/25 11:00:35;;;;;;;;;;;;;;;;;;5112074;28;19916;-67
2023/05/25 11:03:00;;;;;;;;;;;;;;;;;;5112030;28;19919;-67
2023/05/25 11:05:26;;;;;;;;;;;;;;;;;;5112692;28;20384;-66
2023/05/25 11:07:51;;;;;;;;;;;;;;;;;;5099259;28;20352;-66
2023/05/25 11:10:17;;;;;;;;;;;;;;;;;;5091435;28;19916;-67
2023/05/25 11:12:42;;;;;;;;;;;;;;;;;;5091832;28;19920;-68
2023/05/25 11:15:07;;;;;;;;;;;;;;;;;;5111236;28;19916;-67
2023/05/25 11:17:35;;;;;;;;;;;;;;;;;;5092044;28;19912;-69
2023/05/25 11:20:05;;;;;;;;;;;;;;;;;;5107232;28;19971;-65
2023/05/25 11:22:30;;;;;;;;;;;;;;;;;;5100275;28;19955;-63
2023/05/25 11:24:55;;;;;;;;;;;;;;;;;;5072959;28;20411;-66
2023/05/25 11:27:21;;;;;;;;;;;;;;;;;;5098929;27;20363;-67
2023/05/25 11:29:46;;;;;;;;;;;;;;;;;;5110086;28;20427;-66
2023/05/25 11:32:15;;;;;;;;;;;;;;;;;;5108011;28;19931;-66
2023/05/25 11:34:40;;;;;;;;;;;;;;;;;;5082619;28;19919;-66
2023/05/25 11:37:08;;;;;;;;;;;;;;;;;;5096959;28;19916;-65
2023/05/25 11:39:33;;;;;;;;;;;;;;;;;;5105425;28;19920;-66
2023/05/25 11:41:59;;;;;;;;;;;;;;;;;;5099338;28;19922;-65
2023/05/25 11:44:24;;;;;;;;;;;;;;;;;;5095373;28;20353;-66
2023/05/25 11:46:50;;;;;;;;;;;;;;;;;;5099997;28;20428;-64
2023/05/25 11:49:16;;;;;;;;;;;;;;;;;;5100412;28;19924;-66
2023/05/25 11:51:41;;;;;;;;;;;;;;;;;;5108141;28;19961;-65
2023/05/25 11:54:06;;;;;;;;;;;;;;;;;;5104772;28;19924;-66
2023/05/25 11:56:32;;;;;;;;;;;;;;;;;;5103008;28;20408;-66
2023/05/25 11:58:57;;;;;;;;;;;;;;;;;;5089567;28;20476;-66
2023/05/25 12:01:23;;;;;;;;;;;;;;;;;;5106430;28;20006;-67
2023/05/25 12:03:48;;;;;;;;;;;;;;;;;;5110919;28;19930;-66
2023/05/25 12:06:14;;;;;;;;;;;;;;;;;;5090254;28;19928;-66
2023/05/25 12:08:39;;;;;;;;;;;;;;;;;;5090187;28;19920;-67
2023/05/25 12:11:05;;;;;;;;;;;;;;;;;;5089577;28;19961;-67
2023/05/25 12:13:30;;;;;;;;;;;;;;;;;;5104435;28;19920;-66
2023/05/25 12:15:59;;;;;;;;;;;;;;;;;;5075844;28;19916;-67
2023/05/25 12:18:24;;;;;;;;;;;;;;;;;;5093146;28;19924;-66
2023/05/25 12:20:50;;;;;;;;;;;;;;;;;;5108631;28;20304;-68
2023/05/25 12:23:15;;;;;;;;;;;;;;;;;;5063044;28;19943;-69
2023/05/25 12:25:41;;;;;;;;;;;;;;;;;;5096462;28;20014;-68
2023/05/25 12:28:06;;;;;;;;;;;;;;;;;;5095291;28;19964;-66
2023/05/25 12:30:31;;;;;;;;;;;;;;;;;;5084529;28;19966;-68
2023/05/25 12:32:56;;;;;;;;;;;;;;;;;;5099514;28;19935;-68
2023/05/25 12:35:22;;;;;;;;;;;;;;;;;;5091073;28;19970;-67
2023/05/25 12:37:47;;;;;;;;;;;;;;;;;;5073132;28;19916;-67
2023/05/25 12:40:13;;;;;;;;;;;;;;;;;;5096673;28;19950;-67
2023/05/25 12:42:38;;;;;;;;;;;;;;;;;;5086034;28;20504;-69
2023/05/25 12:45:03;;;;;;;;;;;;;;;;;;5088952;28;19920;-68
2023/05/25 12:47:31;;;;;;;;;;;;;;;;;;5110835;28;19931;-68
2023/05/25 12:49:56;;;;;;;;;;;;;;;;;;5097075;28;20229;-67
2023/05/25 12:52:21;;;;;;;;;;;;;;;;;;5096225;28;19923;-66
2023/05/25 12:54:48;;;;;;;;;;;;;;;;;;5100065;28;19974;-66
2023/05/25 12:57:13;;;;;;;;;;;;;;;;;;5108477;28;19923;-66
2023/05/25 12:59:39;;;;;;;;;;;;;;;;;;5082685;28;20388;-65
2023/05/25 13:02:04;;;;;;;;;;;;;;;;;;5103737;28;20520;-65
2023/05/25 13:04:30;;;;;;;;;;;;;;;;;;5076287;28;20301;-66
2023/05/25 13:06:55;;;;;;;;;;;;;;;;;;5095233;28;19924;-66
2023/05/25 13:09:21;;;;;;;;;;;;;;;;;;5104969;28;19951;-67
2023/05/25 13:11:46;;;;;;;;;;;;;;;;;;5101681;28;20015;-65
2023/05/25 13:14:12;;;;;;;;;;;;;;;;;;5101906;28;20334;-66
2023/05/25 13:16:37;;;;;;;;;;;;;;;;;;5076399;28;19938;-68
2023/05/25 13:19:02;;;;;;;;;;;;;;;;;;5111579;28;19920;-69
2023/05/25 13:21:28;;;;;;;;;;;;;;;;;;5086484;28;20026;-70
2023/05/25 13:23:53;;;;;;;;;;;;;;;;;;5104176;28;19919;-70
2023/05/25 13:26:19;;;;;;;;;;;;;;;;;;5092876;28;19968;-70
2023/05/25 13:28:44;;;;;;;;;;;;;;;;;;5105248;28;19927;-70
2023/05/25 13:31:09;;;;;;;;;;;;;;;;;;5101882;28;19919;-70
2023/05/25 13:33:35;;;;;;;;;;;;;;;;;;5076751;28;19965;-70
2023/05/25 13:36:09;;;;;;;;;;;;;;;;;;5098965;28;19961;-71
2023/05/25 13:38:34;;;;;;;;;;;;;;;;;;5104378;28;19928;-69
2023/05/25 13:41:00;;;;;;;;;;;;;;;;;;5104752;28;19915;-69
2023/05/25 13:43:25;;;;;;;;;;;;;;;;;;5109508;28;20404;-67
2023/05/25 13:45:50;;;;;;;;;;;;;;;;;;5117719;27;19931;-69
2023/05/25 13:48:16;;;;;;;;;;;;;;;;;;5130685;27;19920;-68
2023/05/25 13:50:43;;;;;;;;;;;;;;;;;;5115691;27;19923;-70
2023/05/25 13:53:08;;;;;;;;;;;;;;;;;;5101746;28;19927;-69
2023/05/25 13:55:34;;;;;;;;;;;;;;;;;;5074003;28;20239;-70
2023/05/25 13:57:59;;;;;;;;;;;;;;;;;;5099410;27;19942;-66
2023/05/25 14:00:24;;;;;;;;;;;;;;;;;;5083854;28;19916;-71
2023/05/25 14:02:50;;;;;;;;;;;;;;;;;;5099715;28;19923;-70
2023/05/25 14:05:15;;;;;;;;;;;;;;;;;;5089170;28;19923;-71
2023/05/25 14:07:40;;;;;;;;;;;;;;;;;;5103525;27;20388;-70
2023/05/25 14:10:06;;;;;;;;;;;;;;;;;;5105695;27;19920;-70
2023/05/25 14:12:31;;;;;;;;;;;;;;;;;;5092281;28;20020;-70
2023/05/25 14:14:57;;;;;;;;;;;;;;;;;;5069768;28;19923;-68
2023/05/25 14:17:22;;;;;;;;;;;;;;;;;;5074227;28;20436;-70
2023/05/25 14:19:47;;;;;;;;;;;;;;;;;;5092946;28;19916;-69
2023/05/25 14:22:13;;;;;;;;;;;;;;;;;;5076010;28;19916;-69
2023/05/25 14:24:38;;;;;;;;;;;;;;;;;;5112715;28;19962;-69
2023/05/25 14:27:05;;;;;;;;;;;;;;;;;;5107938;28;20034;-64
2023/05/25 14:29:31;;;;;;;;;;;;;;;;;;5074163;28;20141;-65
2023/05/25 14:31:56;;;;;;;;;;;;;;;;;;5105905;28;19924;-66
2023/05/25 14:34:21;;;;;;;;;;;;;;;;;;5096806;28;20018;-66
2023/05/25 14:36:47;;;;;;;;;;;;;;;;;;5100932;28;20340;-68
2023/05/25 14:39:12;;;;;;;;;;;;;;;;;;5092767;28;19920;-65
2023/05/25 14:41:37;;;;;;;;;;;;;;;;;;5105115;28;19950;-67
2023/05/25 14:44:03;;;;;;;;;;;;;;;;;;5112779;28;19927;-65
2023/05/25 14:46:28;;;;;;;;;;;;;;;;;;5094455;28;20024;-69
2023/05/25 14:48:53;;;;;;;;;;;;;;;;;;5104442;28;20072;-70
2023/05/25 14:51:18;;;;;;;;;;;;;;;;;;5102248;28;19976;-71
2023/05/25 14:53:44;;;;;;;;;;;;;;;;;;5110126;28;20059;-67
2023/05/25 14:56:10;;;;;;;;;;;;;;;;;;5111844;28;20387;-70
2023/05/25 14:58:35;;;;;;;;;;;;;;;;;;5110307;28;20042;-69
2023/05/25 15:01:00;;;;;;;;;;;;;;;;;;5101400;28;19916;-67
2023/05/25 15:03:26;;;;;;;;;;;;;;;;;;5064391;28;19920;-69
2023/05/25 15:05:51;;;;;;;;;;;;;;;;;;5084189;28;19946;-67
2023/05/25 15:08:16;;;;;;;;;;;;;;;;;;5105685;28;19919;-66
2023/05/25 15:10:42;;;;;;;;;;;;;;;;;;5101340;28;19966;-64
2023/05/25 15:13:07;;;;;;;;;;;;;;;;;;5110816;28;20384;-71
2023/05/25 15:15:32;;;;;;;;;;;;;;;;;;5110990;28;19915;-69
2023/05/25 15:17:58;;;;;;;;;;;;;;;;;;5111409;28;19920;-69
2023/05/25 15:20:23;;;;;;;;;;;;;;;;;;5110731;28;20029;-70
2023/05/25 15:22:50;;;;;;;;;;;;;;;;;;5107219;28;19920;-68
2023/05/25 15:25:15;;;;;;;;;;;;;;;;;;5121647;27;19915;-69
2023/05/25 15:27:41;;;;;;;;;;;;;;;;;;5114973;27;19928;-69
2023/05/25 15:30:06;;;;;;;;;;;;;;;;;;5111799;28;20391;-69
2023/05/25 15:32:33;;;;;;;;;;;;;;;;;;5108919;28;20272;-68
2023/05/25 15:34:59;;;;;;;;;;;;;;;;;;5104952;27;20372;-68
2023/05/25 15:37:25;;;;;;;;;;;;;;;;;;5079005;28;19932;-69
2023/05/25 15:39:50;;;;;;;;;;;;;;;;;;5089190;28;19928;-70
2023/05/25 15:42:15;;;;;;;;;;;;;;;;;;5108367;28;20296;-65
2023/05/25 15:44:41;;;;;;;;;;;;;;;;;;5110317;28;19916;-67
2023/05/25 15:47:06;;;;;;;;;;;;;;;;;;5075218;28;19928;-67
2023/05/25 15:49:35;;;;;;;;;;;;;;;;;;5109184;28;19923;-67
2023/05/25 15:52:00;;;;;;;;;;;;;;;;;;5108878;28;19920;-67
2023/05/25 15:54:26;;;;;;;;;;;;;;;;;;5073260;28;19916;-66
2023/05/25 15:56:51;;;;;;;;;;;;;;;;;;5089368;28;19956;-65
2023/05/25 15:59:16;;;;;;;;;;;;;;;;;;5088368;28;20002;-65
2023/05/25 16:01:42;;;;;;;;;;;;;;;;;;5090441;28;20027;-64
2023/05/25 16:04:07;;;;;;;;;;;;;;;;;;5090250;28;19978;-65
2023/05/25 16:06:32;;;;;;;;;;;;;;;;;;5097142;28;19969;-66
2023/05/25 16:08:58;;;;;;;;;;;;;;;;;;5096857;28;19969;-66
2023/05/25 16:11:23;;;;;;;;;;;;;;;;;;5099281;28;19924;-66
2023/05/25 16:13:48;;;;;;;;;;;;;;;;;;5073326;28;19969;-71
2023/05/25 16:16:14;;;;;;;;;;;;;;;;;;5103811;28;19930;-66
2023/05/25 16:18:40;;;;;;;;;;;;;;;;;;5095562;28;19916;-66
2023/05/25 16:21:05;;;;;;;;;;;;;;;;;;5093259;28;20466;-66
2023/05/25 16:23:31;;;;;;;;;;;;;;;;;;5075146;28;19916;-69
2023/05/25 16:25:56;;;;;;;;;;;;;;;;;;5074840;28;19935;-68
2023/05/25 16:28:21;;;;;;;;;;;;;;;;;;5094004;28;19916;-69
2023/05/25 16:30:47;;;;;;;;;;;;;;;;;;5075303;28;19920;-67
2023/05/25 16:33:12;;;;;;;;;;;;;;;;;;5093510;28;20324;-66
2023/05/25 16:35:37;;;;;;;;;;;;;;;;;;5074208;28;19920;-64